Time;durP1;ratioP1;P1;durP2;ratioP2;P2;SDS_P1;SDS_P2;PMS_P1;PMS_P2;Temp;Humidity;BMP_temperature;BMP_pressure;BME280_temperature;BME280_humidity;BME280_pressure;Samples;Min_cycle;Max_cycle;Signal;HPM_P1;HPM_P2
2022/01/08 00:00:22;;;;;;;71.97;11.57;;;10.40;99.90;;;;;;5090540;28;20028;-88
2022/01/08 00:02:48;;;;;;;67.28;9.05;;;10.40;99.90;;;;;;5090435;28;20020;-88
2022/01/08 00:05:14;;;;;;;73.25;10.23;;;10.30;99.90;;;;;;5071835;28;20081;-89
2022/01/08 00:07:41;;;;;;;62.80;10.45;;;10.40;99.90;;;;;;5089742;28;20109;-89
2022/01/08 00:10:07;;;;;;;66.82;10.32;;;10.30;99.90;;;;;;5071958;28;20028;-88
2022/01/08 00:12:32;;;;;;;78.43;9.93;;;10.30;99.90;;;;;;5089918;28;20024;-89
2022/01/08 00:14:58;;;;;;;65.70;9.80;;;10.40;99.90;;;;;;5090065;28;20484;-88
2022/01/08 00:17:24;;;;;;;75.20;10.20;;;10.30;99.90;;;;;;5090159;28;20028;-88
2022/01/08 00:19:50;;;;;;;70.82;9.27;;;10.40;99.90;;;;;;5090355;28;20371;-89
2022/01/08 00:22:16;;;;;;;75.07;9.43;;;10.40;99.90;;;;;;5089841;28;20741;-88
2022/01/08 00:24:42;;;;;;;77.10;9.43;;;10.40;99.90;;;;;;5090137;28;20248;-87
2022/01/08 00:27:08;;;;;;;75.95;9.90;;;10.40;99.90;;;;;;5090263;28;20333;-88
2022/01/08 00:29:33;;;;;;;77.68;9.25;;;10.40;99.90;;;;;;5089625;28;20036;-87
2022/01/08 00:31:59;;;;;;;59.40;9.27;;;10.40;99.90;;;;;;5089658;28;20391;-87
2022/01/08 00:34:25;;;;;;;59.78;8.82;;;10.40;99.90;;;;;;5089631;28;20036;-88
2022/01/08 00:36:51;;;;;;;58.42;8.27;;;10.30;99.90;;;;;;5089414;28;20031;-87
2022/01/08 00:39:16;;;;;;;69.60;8.60;;;10.30;99.90;;;;;;5089669;28;20090;-87
2022/01/08 00:41:42;;;;;;;54.55;6.88;;;10.30;99.90;;;;;;5089777;28;20028;-87
2022/01/08 00:44:08;;;;;;;47.70;7.53;;;10.20;99.90;;;;;;5089645;28;20049;-87
2022/01/08 00:46:34;;;;;;;47.15;7.30;;;10.20;99.90;;;;;;5089783;28;20514;-87
2022/01/08 00:49:01;;;;;;;52.28;6.40;;;10.30;99.90;;;;;;5089199;28;20486;-87
2022/01/08 00:51:27;;;;;;;47.05;7.03;;;10.30;99.90;;;;;;5089207;28;20023;-87
2022/01/08 00:53:52;;;;;;;40.50;6.72;;;10.30;99.90;;;;;;5071397;28;20024;-87
2022/01/08 00:56:18;;;;;;;44.75;5.72;;;10.30;99.90;;;;;;5071651;28;20491;-87
2022/01/08 00:58:44;;;;;;;37.13;5.97;;;10.30;99.90;;;;;;5089903;28;20099;-87
2022/01/08 01:01:09;;;;;;;38.42;5.07;;;10.40;99.90;;;;;;5071395;28;20024;-87
2022/01/08 01:03:36;;;;;;;40.75;6.97;;;10.40;99.90;;;;;;5071352;28;20051;-86
2022/01/08 01:06:02;;;;;;;47.47;5.57;;;10.40;99.90;;;;;;5070922;28;20031;-86
2022/01/08 01:08:29;;;;;;;39.55;5.97;;;10.40;99.90;;;;;;5071215;28;20024;-86
2022/01/08 01:10:54;;;;;;;50.45;7.30;;;10.40;99.90;;;;;;5071285;28;20035;-86
2022/01/08 01:13:20;;;;;;;42.85;6.20;;;10.40;99.90;;;;;;5089476;28;20107;-86
2022/01/08 01:15:46;;;;;;;38.65;6.97;;;10.40;99.90;;;;;;5071322;28;20047;-86
2022/01/08 01:18:12;;;;;;;40.50;5.97;;;10.30;99.90;;;;;;5071053;28;20025;-86
2022/01/08 01:20:37;;;;;;;42.97;5.43;;;10.30;99.90;;;;;;5070908;28;20028;-86
2022/01/08 01:23:16;;;;;;;43.95;6.45;;;10.30;99.90;;;;;;5083168;28;20164;-86
2022/01/08 01:25:49;;;;;;;41.03;6.30;;;10.20;99.90;;;;;;5052749;28;20041;-86
2022/01/08 01:28:30;;;;;;;46.15;6.90;;;10.20;99.90;;;;;;5089168;28;20393;-86
2022/01/08 01:47:04;;;;;;;54.03;6.82;;;9.90;99.90;;;;;;5089247;28;19957;-86
2022/01/08 01:49:36;;;;;;;53.35;7.88;;;9.90;99.90;;;;;;5070723;28;20031;-86
2022/01/08 01:52:05;;;;;;;59.65;7.05;;;9.90;99.90;;;;;;5088527;28;20028;-86
2022/01/08 01:54:32;;;;;;;58.05;7.47;;;9.90;99.90;;;;;;5088966;28;20027;-86
2022/01/08 01:57:00;;;;;;;55.97;7.25;;;9.90;99.90;;;;;;5092111;28;20027;-86
2022/01/08 01:59:27;;;;;;;46.75;7.03;;;9.80;99.90;;;;;;5092755;28;20508;-85
2022/01/08 02:01:53;;;;;;;57.10;7.70;;;9.80;99.90;;;;;;5092845;28;20025;-86
2022/01/08 02:04:19;;;;;;;59.83;7.18;;;9.80;99.90;;;;;;5092604;28;20073;-86
2022/01/08 02:06:45;;;;;;;61.85;6.82;;;9.80;99.90;;;;;;5092185;28;20024;-86
2022/01/08 02:09:10;;;;;;;60.65;7.38;;;9.80;99.90;;;;;;5092335;28;20039;-86
2022/01/08 02:11:56;;;;;;;61.63;7.75;;;9.80;99.90;;;;;;5074347;28;20024;-86
2022/01/08 02:14:22;;;;;;;52.70;7.70;;;9.80;99.90;;;;;;5092260;28;20434;-86
2022/01/08 02:16:48;;;;;;;51.13;6.50;;;9.80;99.90;;;;;;5092231;28;20020;-86
2022/01/08 02:19:14;;;;;;;54.60;7.95;;;9.80;99.90;;;;;;5092262;28;20016;-86
2022/01/08 02:21:49;;;;;;;57.45;6.80;;;9.80;99.90;;;;;;5092144;28;20034;-86
2022/01/08 02:24:14;;;;;;;59.15;8.05;;;9.80;99.90;;;;;;5092298;28;20450;-86
2022/01/08 02:26:41;;;;;;;62.22;9.50;;;9.80;99.90;;;;;;5074135;28;20020;-86
2022/01/08 02:29:11;;;;;;;67.55;8.55;;;9.80;99.90;;;;;;5091926;28;20032;-86
2022/01/08 02:31:36;;;;;;;74.57;8.50;;;9.70;99.90;;;;;;5091805;28;20481;-86
2022/01/08 02:34:04;;;;;;;68.90;9.48;;;9.70;99.90;;;;;;5091910;28;20024;-86
2022/01/08 02:36:30;;;;;;;73.65;8.85;;;9.70;99.90;;;;;;5091446;28;20028;-86
2022/01/08 02:38:56;;;;;;;68.70;9.60;;;9.70;99.90;;;;;;5091847;28;20146;-86
2022/01/08 02:41:21;;;;;;;69.50;9.07;;;9.60;99.90;;;;;;5091893;28;20020;-86
2022/01/08 02:43:52;;;;;;;72.55;9.38;;;9.70;99.90;;;;;;5091951;28;20039;-86
2022/01/08 02:46:19;;;;;;;77.85;9.27;;;9.70;99.90;;;;;;5091823;28;20613;-86
2022/01/08 02:48:45;;;;;;;84.18;11.00;;;9.70;99.90;;;;;;5091548;28;20531;-86
2022/01/08 02:51:11;;;;;;;74.70;10.30;;;9.70;99.90;;;;;;5091381;28;20016;-86
2022/01/08 02:53:36;;;;;;;72.60;9.60;;;9.80;99.90;;;;;;5091410;28;20024;-86
2022/01/08 02:56:02;;;;;;;78.28;9.98;;;9.80;99.90;;;;;;5091837;28;20023;-86
2022/01/08 02:58:28;;;;;;;80.15;11.60;;;9.80;99.90;;;;;;5073292;28;20193;-86
2022/01/08 03:00:56;;;;;;;88.93;11.00;;;9.80;99.90;;;;;;5091578;28;20020;-86
2022/01/08 03:03:22;;;;;;;75.32;10.43;;;9.90;99.90;;;;;;5085194;28;20477;-85
2022/01/08 03:05:48;;;;;;;72.60;9.77;;;9.90;99.90;;;;;;5084740;28;20150;-86
2022/01/08 03:08:13;;;;;;;73.97;10.63;;;9.90;99.90;;;;;;5073204;28;20040;-86
2022/01/08 03:10:39;;;;;;;70.25;10.48;;;9.90;99.90;;;;;;5091457;28;20408;-86
2022/01/08 03:13:05;;;;;;;81.03;10.77;;;9.80;99.90;;;;;;5072947;28;20020;-86
2022/01/08 03:15:35;;;;;;;80.85;9.88;;;9.90;99.90;;;;;;5072937;28;20020;-86
2022/01/08 03:18:01;;;;;;;70.68;8.75;;;9.80;99.90;;;;;;5091329;28;20024;-86
2022/01/08 03:20:27;;;;;;;77.80;12.85;;;9.90;99.90;;;;;;5090763;28;20020;-86
2022/01/08 03:23:00;;;;;;;80.25;10.15;;;9.90;99.90;;;;;;5072916;28;20511;-86
2022/01/08 03:25:26;;;;;;;82.35;12.02;;;9.90;99.90;;;;;;5072840;28;20016;-86
2022/01/08 03:27:53;;;;;;;79.88;10.15;;;9.90;99.90;;;;;;5090982;28;20086;-86
2022/01/08 03:30:19;;;;;;;60.97;10.07;;;9.90;99.90;;;;;;5072685;28;20035;-86
2022/01/08 03:32:45;;;;;;;64.40;10.07;;;10.00;99.90;;;;;;5090754;28;20035;-85
2022/01/08 03:35:11;;;;;;;74.55;10.98;;;10.00;99.90;;;;;;5090370;28;20500;-86
2022/01/08 03:37:37;;;;;;;79.70;10.13;;;9.90;99.90;;;;;;5072537;28;20029;-86
2022/01/08 03:40:04;;;;;;;82.82;11.02;;;10.00;99.90;;;;;;5072499;28;20404;-86
2022/01/08 03:42:29;;;;;;;80.95;9.77;;;10.00;99.90;;;;;;5090701;28;20025;-86
2022/01/08 03:44:55;;;;;;;66.10;9.85;;;9.90;99.90;;;;;;5072518;28;20389;-86
2022/01/08 03:49:52;;;;;;;75.03;9.95;;;10.00;99.90;;;;;;5090852;28;20036;-86
2022/01/08 03:52:18;;;;;;;63.08;9.65;;;10.00;99.90;;;;;;5090175;28;20032;-86
2022/01/08 03:54:44;;;;;;;74.38;10.98;;;9.90;99.90;;;;;;5090584;28;20069;-86
2022/01/08 03:57:09;;;;;;;75.93;10.48;;;9.90;99.90;;;;;;5090242;28;20016;-86
2022/01/08 03:59:35;;;;;;;71.35;10.13;;;9.90;99.90;;;;;;5090416;28;20055;-86
2022/01/08 04:02:01;;;;;;;72.80;9.68;;;10.00;99.90;;;;;;5072187;28;20384;-86
2022/01/08 04:04:27;;;;;;;66.05;10.20;;;10.00;99.90;;;;;;5090351;28;20491;-86
2022/01/08 04:06:52;;;;;;;70.18;9.10;;;10.00;99.90;;;;;;5090102;28;20016;-86
2022/01/08 04:09:18;;;;;;;71.07;9.35;;;10.00;99.90;;;;;;5090133;28;20039;-86
2022/01/08 04:11:45;;;;;;;74.78;9.65;;;10.10;99.90;;;;;;5090349;28;20024;-86
2022/01/08 04:14:12;;;;;;;65.72;8.88;;;10.00;99.90;;;;;;5089987;28;20036;-86
2022/01/08 04:16:42;;;;;;;77.45;9.77;;;10.10;99.90;;;;;;5090173;28;20035;-86
2022/01/08 04:19:07;;;;;;;59.08;8.90;;;10.10;99.90;;;;;;5089555;28;20020;-86
2022/01/08 04:24:05;;;;;;;75.18;9.80;;;10.10;99.90;;;;;;5089990;28;20535;-86
2022/01/08 04:26:31;;;;;;;59.45;8.07;;;10.10;99.90;;;;;;5072156;28;20047;-86
2022/01/08 04:28:57;;;;;;;76.50;10.27;;;10.20;99.90;;;;;;5089937;28;20090;-86
2022/01/08 04:31:26;;;;;;;71.38;9.85;;;10.10;99.90;;;;;;5071650;28;20019;-86
2022/01/08 04:33:53;;;;;;;61.85;8.25;;;10.10;99.90;;;;;;5089854;28;20059;-85
2022/01/08 04:36:21;;;;;;;70.20;9.02;;;10.20;99.90;;;;;;5071132;28;20028;-86
2022/01/08 04:38:47;;;;;;;67.55;8.35;;;10.20;99.90;;;;;;5089700;28;20445;-86
2022/01/08 04:41:12;;;;;;;61.30;9.55;;;10.20;99.90;;;;;;5071531;28;20052;-86
2022/01/08 04:43:42;;;;;;;67.63;9.60;;;10.30;99.90;;;;;;5071567;28;20020;-86
2022/01/08 04:46:08;;;;;;;78.90;9.45;;;10.30;99.90;;;;;;5089803;28;20043;-85
2022/01/08 04:48:34;;;;;;;64.60;7.95;;;10.40;99.90;;;;;;5071274;28;20082;-86
2022/01/08 04:51:00;;;;;;;67.45;10.02;;;10.50;99.90;;;;;;5089496;28;20028;-86
2022/01/08 04:53:26;;;;;;;68.00;8.13;;;10.50;99.90;;;;;;5071668;28;20024;-87
2022/01/08 04:55:52;;;;;;;76.65;10.35;;;10.50;99.90;;;;;;5089627;28;20116;-88
2022/01/08 04:58:18;;;;;;;71.20;9.10;;;10.60;99.90;;;;;;5089542;28;20095;-88
2022/01/08 05:00:43;;;;;;;64.43;8.35;;;10.50;99.90;;;;;;5089424;28;20262;-89
2022/01/08 05:03:09;;;;;;;56.08;6.75;;;10.40;99.90;;;;;;5071450;28;20016;-90
2022/01/08 05:05:35;;;;;;;53.00;6.82;;;10.30;99.90;;;;;;5071217;28;20077;-89
2022/01/08 05:08:00;;;;;;;54.55;7.50;;;10.20;99.90;;;;;;5089504;28;20020;-89
2022/01/08 05:10:26;;;;;;;63.80;8.35;;;10.10;99.90;;;;;;5089880;28;20035;-90
2022/01/08 05:12:52;;;;;;;89.13;9.25;;;10.10;99.90;;;;;;5071710;28;20016;-89
2022/01/08 05:15:18;;;;;;;86.90;10.38;;;10.10;99.90;;;;;;5089780;28;20032;-91
2022/01/08 05:17:47;;;;;;;77.88;10.13;;;10.20;99.90;;;;;;5071612;28;20101;-91
2022/01/08 05:20:14;;;;;;;78.03;11.65;;;10.20;99.90;;;;;;5089495;28;20044;-91
2022/01/08 05:25:15;;;;;;;77.55;10.23;;;10.20;99.90;;;;;;5089958;28;20051;-92
2022/01/08 05:27:41;;;;;;;87.10;11.07;;;10.10;99.90;;;;;;5071972;28;20119;-92
2022/01/08 05:30:07;;;;;;;72.30;8.88;;;10.10;99.90;;;;;;5073057;28;20154;-92
2022/01/08 05:32:34;;;;;;;64.47;8.57;;;10.10;99.90;;;;;;5075875;28;20028;-92
2022/01/08 05:35:00;;;;;;;64.10;8.95;;;10.20;99.90;;;;;;5075631;28;20053;-91
2022/01/08 05:37:26;;;;;;;73.40;9.02;;;10.20;99.90;;;;;;5094158;28;20024;-93
2022/01/08 05:39:53;;;;;;;76.13;10.25;;;10.20;99.90;;;;;;5075287;28;20062;-93
2022/01/08 05:42:19;;;;;;;57.67;8.45;;;10.20;99.90;;;;;;5075436;28;20028;-92
2022/01/08 05:44:45;;;;;;;58.60;8.77;;;10.20;99.90;;;;;;5075837;28;20028;-93
2022/01/08 05:47:11;;;;;;;61.13;7.97;;;10.20;99.90;;;;;;5075172;28;20028;-92
2022/01/08 05:49:36;;;;;;;65.40;8.63;;;10.20;99.90;;;;;;5075175;28;20246;-91
2022/01/08 05:52:03;;;;;;;62.83;8.05;;;10.20;99.90;;;;;;5074955;28;20028;-91
2022/01/08 05:54:28;;;;;;;56.70;8.32;;;10.20;99.90;;;;;;5074942;28;20236;-91
2022/01/08 05:56:55;;;;;;;51.70;6.65;;;10.20;99.90;;;;;;5075022;28;20166;-91
2022/01/08 05:59:26;;;;;;;51.08;8.30;;;10.20;99.90;;;;;;5080630;28;20024;-91
2022/01/08 06:01:53;;;;;;;59.72;8.75;;;10.20;99.90;;;;;;5078037;28;20481;-91
2022/01/08 06:04:18;;;;;;;55.22;7.25;;;10.20;99.90;;;;;;5074921;28;20216;-91
2022/01/08 06:06:45;;;;;;;58.50;8.75;;;10.20;99.90;;;;;;5074293;28;20213;-91
2022/01/08 06:09:11;;;;;;;73.18;8.60;;;10.10;99.90;;;;;;5074410;28;20405;-91
2022/01/08 06:11:36;;;;;;;54.90;7.35;;;10.10;99.90;;;;;;5093074;28;20017;-91
2022/01/08 06:14:02;;;;;;;63.78;8.50;;;10.10;99.90;;;;;;5074661;28;20481;-91
2022/01/08 06:16:37;;;;;;;70.15;8.68;;;10.10;99.90;;;;;;5067668;28;20024;-91
2022/01/08 06:19:08;;;;;;;60.95;9.18;;;10.20;99.90;;;;;;5068589;28;20516;-90
2022/01/08 06:21:34;;;;;;;71.50;10.43;;;10.20;99.90;;;;;;5091823;28;20504;-90
2022/01/08 06:24:00;;;;;;;71.18;8.73;;;10.20;99.90;;;;;;5074236;28;20017;-89
2022/01/08 06:26:26;;;;;;;60.85;8.93;;;10.20;99.90;;;;;;5073993;28;20400;-90
2022/01/08 06:28:51;;;;;;;80.70;10.88;;;10.20;99.90;;;;;;5073853;28;20036;-90
2022/01/08 06:31:21;;;;;;;69.10;9.10;;;10.30;99.90;;;;;;5092739;28;20468;-90
2022/01/08 06:33:47;;;;;;;70.47;9.13;;;10.20;99.90;;;;;;5092105;28;20506;-89
2022/01/08 06:36:19;;;;;;;79.95;9.43;;;10.30;99.90;;;;;;5073537;28;20024;-89
2022/01/08 06:38:48;;;;;;;73.28;10.30;;;10.30;99.90;;;;;;5091951;28;20024;-89
2022/01/08 06:41:14;;;;;;;73.55;10.23;;;10.30;99.90;;;;;;5073136;28;20032;-89
2022/01/08 06:43:40;;;;;;;82.35;11.27;;;10.40;99.90;;;;;;5073506;28;20024;-88
2022/01/08 06:46:06;;;;;;;64.10;9.85;;;10.40;99.90;;;;;;5074502;28;20581;-91
2022/01/08 06:48:32;;;;;;;72.95;10.57;;;10.50;99.90;;;;;;5066847;28;20442;-89
2022/01/08 06:50:58;;;;;;;76.13;11.80;;;10.50;99.90;;;;;;5091667;28;20039;-89
2022/01/08 06:53:23;;;;;;;64.35;8.80;;;10.50;99.90;;;;;;5073487;28;20032;-89
2022/01/08 06:55:49;;;;;;;80.03;9.68;;;10.50;99.90;;;;;;5091586;28;20024;-88
2022/01/08 06:58:15;;;;;;;69.53;9.50;;;10.50;99.90;;;;;;5091465;28;20024;-88
2022/01/08 07:00:41;;;;;;;72.90;8.57;;;10.60;99.90;;;;;;5073287;28;20064;-88
2022/01/08 07:03:11;;;;;;;68.63;9.82;;;10.60;99.90;;;;;;5072930;28;20054;-89
2022/01/08 07:05:37;;;;;;;63.90;8.10;;;10.60;99.90;;;;;;5091068;28;20032;-88
2022/01/08 07:08:03;;;;;;;53.25;7.32;;;10.70;99.90;;;;;;5072932;28;20473;-88
2022/01/08 07:10:29;;;;;;;65.28;8.95;;;10.70;99.90;;;;;;5091167;28;20036;-88
2022/01/08 07:12:55;;;;;;;63.13;10.18;;;10.70;99.90;;;;;;5091342;28;20026;-88
2022/01/08 07:15:20;;;;;;;71.68;8.05;;;10.70;99.90;;;;;;5073318;28;20472;-88
2022/01/08 07:17:46;;;;;;;51.88;7.78;;;10.70;99.90;;;;;;5073250;28;20450;-88
2022/01/08 07:20:12;;;;;;;65.07;9.13;;;10.70;99.90;;;;;;5090802;28;20016;-88
2022/01/08 07:22:38;;;;;;;51.03;7.22;;;10.70;99.90;;;;;;5090876;28;20103;-88
2022/01/08 07:25:05;;;;;;;50.30;7.93;;;10.70;99.90;;;;;;5072779;28;20032;-87
2022/01/08 07:27:32;;;;;;;61.65;8.25;;;10.70;99.90;;;;;;5072916;28;20518;-87
2022/01/08 07:30:03;;;;;;;56.15;8.02;;;10.70;99.90;;;;;;5072563;28;20400;-86
2022/01/08 07:32:28;;;;;;;47.35;7.40;;;10.70;99.90;;;;;;5072725;28;20171;-87
2022/01/08 07:34:54;;;;;;;64.32;8.85;;;10.70;99.90;;;;;;5090773;28;20027;-87
2022/01/08 07:37:20;;;;;;;60.03;7.57;;;10.80;99.90;;;;;;5090823;28;20073;-87
2022/01/08 07:39:46;;;;;;;67.50;8.10;;;10.80;99.90;;;;;;5091025;28;20024;-87
2022/01/08 07:42:11;;;;;;;57.75;8.35;;;10.70;99.90;;;;;;5072270;28;20373;-87
2022/01/08 07:44:39;;;;;;;72.20;9.10;;;10.80;99.90;;;;;;5072296;28;20081;-87
2022/01/08 07:47:05;;;;;;;56.33;7.20;;;10.80;99.90;;;;;;5072322;28;20392;-86
2022/01/08 07:49:30;;;;;;;63.28;7.93;;;10.90;99.90;;;;;;5072409;28;20028;-89
2022/01/08 07:51:56;;;;;;;60.60;7.90;;;10.90;99.90;;;;;;5072296;28;20024;-87
2022/01/08 07:54:22;;;;;;;58.25;7.80;;;10.90;99.90;;;;;;5071710;28;20472;-87
2022/01/08 07:56:47;;;;;;;63.40;8.15;;;10.90;99.90;;;;;;5072330;28;20028;-86
2022/01/08 07:59:13;;;;;;;49.35;8.30;;;10.90;99.90;;;;;;5072245;28;20028;-85
2022/01/08 08:01:39;;;;;;;61.30;7.65;;;11.00;99.90;;;;;;5072337;28;20027;-86
2022/01/08 08:04:04;;;;;;;54.25;7.63;;;11.00;99.90;;;;;;5072085;28;20115;-86
2022/01/08 08:06:32;;;;;;;53.45;7.50;;;11.00;99.90;;;;;;5089758;28;20017;-85
2022/01/08 08:08:58;;;;;;;47.17;6.65;;;11.10;99.90;;;;;;5072077;28;20435;-86
2022/01/08 08:11:24;;;;;;;44.78;5.28;;;11.00;99.90;;;;;;5090547;28;20066;-85
2022/01/08 08:13:49;;;;;;;38.53;5.78;;;11.00;99.90;;;;;;5090430;28;20039;-85
2022/01/08 08:16:15;;;;;;;45.65;6.03;;;11.00;99.90;;;;;;5071987;28;20055;-86
2022/01/08 08:18:41;;;;;;;30.33;4.68;;;11.00;99.90;;;;;;5090363;28;20103;-86
2022/01/08 08:21:06;;;;;;;37.28;4.28;;;11.00;99.90;;;;;;5089840;28;20035;-86
2022/01/08 08:23:32;;;;;;;45.53;5.53;;;11.00;99.90;;;;;;5071780;28;20020;-86
2022/01/08 08:25:58;;;;;;;26.88;4.15;;;11.00;99.90;;;;;;5089908;28;20016;-86
2022/01/08 08:28:23;;;;;;;26.27;4.35;;;11.00;99.90;;;;;;5089993;28;20028;-85
2022/01/08 08:30:49;;;;;;;25.35;3.30;;;10.90;99.90;;;;;;5089911;28;20519;-85
2022/01/08 08:33:15;;;;;;;33.03;4.82;;;10.90;99.90;;;;;;5090076;28;20392;-86
2022/01/08 08:35:40;;;;;;;30.90;4.03;;;10.90;99.90;;;;;;5089607;28;20024;-85
2022/01/08 08:38:06;;;;;;;30.48;3.95;;;10.90;99.90;;;;;;5089882;28;20024;-86
2022/01/08 08:40:32;;;;;;;26.15;5.05;;;10.90;99.90;;;;;;5089882;28;20464;-86
2022/01/08 08:42:57;;;;;;;31.80;4.60;;;10.90;99.90;;;;;;5090042;28;20044;-85
2022/01/08 08:45:23;;;;;;;34.83;4.07;;;10.90;99.90;;;;;;5089286;28;20028;-86
2022/01/08 08:47:50;;;;;;;33.42;4.38;;;11.00;99.90;;;;;;5089285;28;20051;-85
2022/01/08 08:50:16;;;;;;;29.10;4.53;;;11.00;99.90;;;;;;5089276;28;20032;-86
2022/01/08 08:52:42;;;;;;;29.10;4.47;;;11.00;99.90;;;;;;5090069;28;20024;-86
2022/01/08 08:55:08;;;;;;;32.83;4.18;;;11.10;99.90;;;;;;5089843;28;20107;-86
2022/01/08 08:57:34;;;;;;;34.13;4.50;;;11.10;99.90;;;;;;5083129;28;20012;-86
2022/01/08 09:00:00;;;;;;;38.50;4.32;;;11.20;99.90;;;;;;5089461;28;20388;-85
2022/01/08 09:02:26;;;;;;;30.63;5.28;;;11.30;99.90;;;;;;5089463;28;20059;-86
2022/01/08 09:04:52;;;;;;;53.33;14.13;;;11.30;99.90;;;;;;5090801;28;20024;-85
2022/01/08 09:07:18;;;;;;;32.15;4.38;;;11.30;99.90;;;;;;5093711;28;20040;-86
2022/01/08 09:09:44;;;;;;;32.90;4.65;;;11.40;99.90;;;;;;5075221;28;20071;-86
2022/01/08 09:12:14;;;;;;;29.00;5.05;;;11.40;99.90;;;;;;5093240;28;20054;-86
2022/01/08 09:14:40;;;;;;;34.15;4.70;;;11.30;99.90;;;;;;5093839;28;20375;-86
2022/01/08 09:17:06;;;;;;;40.33;4.88;;;11.40;99.90;;;;;;5093642;28;20473;-86
2022/01/08 09:19:32;;;;;;;38.28;5.55;;;11.40;99.90;;;;;;5093128;28;20092;-86
2022/01/08 09:22:01;;;;;;;37.95;4.78;;;11.40;99.90;;;;;;5093125;28;20480;-86
2022/01/08 09:24:27;;;;;;;39.25;5.25;;;11.50;99.90;;;;;;5093523;28;20150;-86
2022/01/08 09:26:52;;;;;;;39.10;4.32;;;11.50;99.90;;;;;;5093281;28;20107;-86
2022/01/08 09:29:18;;;;;;;33.00;4.57;;;11.60;99.90;;;;;;5093622;28;20043;-85
2022/01/08 09:31:44;;;;;;;41.33;5.65;;;11.60;99.90;;;;;;5093317;28;20024;-86
2022/01/08 09:34:10;;;;;;;36.10;5.38;;;11.60;99.90;;;;;;5093063;28;20034;-86
2022/01/08 09:36:37;;;;;;;36.20;5.13;;;11.60;99.90;;;;;;5093280;28;20480;-86
2022/01/08 09:39:05;;;;;;;34.05;4.82;;;11.60;99.90;;;;;;5093386;28;20032;-86
2022/01/08 09:41:30;;;;;;;40.63;5.07;;;11.60;99.90;;;;;;5093101;28;20401;-85
2022/01/08 09:43:56;;;;;;;38.28;5.88;;;11.60;99.90;;;;;;5093311;28;20035;-86
2022/01/08 09:46:22;;;;;;;41.58;4.80;;;11.60;99.90;;;;;;5092831;28;20024;-86
2022/01/08 09:48:49;;;;;;;31.25;4.78;;;11.70;99.90;;;;;;5092826;28;20044;-86
2022/01/08 09:51:16;;;;;;;37.60;4.82;;;11.70;99.90;;;;;;5092510;28;20480;-86
2022/01/08 09:53:43;;;;;;;36.03;4.63;;;11.70;99.90;;;;;;5092779;28;20496;-86
2022/01/08 09:56:09;;;;;;;30.27;4.63;;;11.70;99.90;;;;;;5093049;28;20020;-86
2022/01/08 09:58:35;;;;;;;32.35;4.25;;;11.60;99.90;;;;;;5074571;28;20425;-86
2022/01/08 10:01:01;;;;;;;37.60;5.80;;;11.60;99.90;;;;;;5074613;28;20111;-86
2022/01/08 10:03:32;;;;;;;26.35;4.22;;;11.60;99.90;;;;;;5092722;28;20020;-85
2022/01/08 10:05:59;;;;;;;29.20;3.95;;;11.60;99.90;;;;;;5092335;28;20027;-86
2022/01/08 10:08:30;;;;;;;36.13;4.95;;;11.60;99.90;;;;;;5092460;28;20500;-86
2022/01/08 10:11:07;;;;;;;33.85;4.15;;;11.70;99.90;;;;;;5092508;28;20048;-86
2022/01/08 10:13:36;;;;;;;38.10;5.15;;;11.70;99.90;;;;;;5092776;28;20030;-85
2022/01/08 10:18:49;;;;;;;32.20;5.40;;;11.90;99.90;;;;;;5092535;28;20046;-86
2022/01/08 10:21:22;;;;;;;40.63;5.20;;;12.00;99.90;;;;;;5092104;28;20542;-85
2022/01/08 10:24:04;;;;;;;43.20;5.60;;;12.00;99.90;;;;;;5092593;28;20099;-86
2022/01/08 10:26:39;;;;;;;41.10;4.30;;;12.20;99.90;;;;;;5092408;28;20336;-86
2022/01/08 10:29:09;;;;;;;37.90;5.72;;;12.30;99.90;;;;;;5074144;28;20028;-85
2022/01/08 10:31:50;;;;;;;45.05;5.97;;;12.30;99.90;;;;;;5092000;28;20463;-85
2022/01/08 10:34:19;;;;;;;43.92;7.22;;;12.40;99.90;;;;;;5091947;28;20027;-86
2022/01/08 10:36:57;;;;;;;40.70;6.45;;;12.40;99.90;;;;;;5073376;28;20020;-86
2022/01/08 10:39:33;;;;;;;46.17;5.88;;;12.40;99.90;;;;;;5073785;28;20024;-86
2022/01/08 10:42:01;;;;;;;47.75;7.38;;;12.40;99.90;;;;;;5085684;28;20073;-86
2022/01/08 10:44:31;;;;;;;41.20;6.82;;;12.40;99.90;;;;;;5085517;28;20074;-86
2022/01/08 10:47:05;;;;;;;43.22;6.25;;;12.40;99.90;;;;;;5085659;28;20028;-86
2022/01/08 10:49:37;;;;;;;45.50;7.13;;;12.30;99.90;;;;;;5091591;28;20096;-86
2022/01/08 10:52:12;;;;;;;41.15;6.70;;;12.30;99.90;;;;;;5091600;28;20024;-86
2022/01/08 10:54:45;;;;;;;46.65;6.18;;;12.40;99.90;;;;;;5091735;28;20465;-86
2022/01/08 10:57:14;;;;;;;44.08;6.35;;;12.30;99.90;;;;;;5091564;28;20023;-86
2022/01/08 10:59:42;;;;;;;41.90;6.40;;;12.30;99.90;;;;;;5073505;28;20016;-86
2022/01/08 11:02:11;;;;;;;36.95;5.43;;;12.30;99.90;;;;;;5091672;28;20428;-86
2022/01/08 11:04:46;;;;;;;40.65;5.78;;;12.30;99.90;;;;;;5091417;28;20102;-86
2022/01/08 11:07:16;;;;;;;32.13;5.07;;;12.40;99.90;;;;;;5073273;28;20023;-86
2022/01/08 11:09:45;;;;;;;42.97;5.57;;;12.50;99.90;;;;;;5091129;28;20095;-86
2022/01/08 11:12:16;;;;;;;46.65;6.65;;;12.50;99.90;;;;;;5091273;28;20045;-86
2022/01/08 11:17:34;;;;;;;38.60;5.25;;;12.50;99.90;;;;;;5091371;28;20487;-86
2022/01/08 11:20:05;;;;;;;44.03;6.32;;;12.40;99.90;;;;;;5091287;28;20012;-86
2022/01/08 11:22:33;;;;;;;47.38;6.47;;;12.50;99.90;;;;;;5085826;28;20089;-86
2022/01/08 11:25:06;;;;;;;45.72;6.65;;;12.50;99.90;;;;;;5091219;28;20020;-86
2022/01/08 11:27:38;;;;;;;35.65;5.43;;;12.50;99.90;;;;;;5090505;28;20035;-86
2022/01/08 11:30:12;;;;;;;49.75;7.05;;;12.40;99.90;;;;;;5072334;28;20044;-86
2022/01/08 11:32:39;;;;;;;48.38;6.43;;;12.40;99.90;;;;;;5072604;28;20416;-86
2022/01/08 11:35:07;;;;;;;60.92;7.72;;;12.40;99.90;;;;;;5072238;28;20036;-86
2022/01/08 11:37:34;;;;;;;50.15;7.60;;;12.40;99.90;;;;;;5090250;28;20477;-86
2022/01/08 11:40:07;;;;;;;53.58;7.20;;;12.30;99.90;;;;;;5090689;28;20533;-86
2022/01/08 11:42:37;;;;;;;54.67;7.47;;;12.30;99.90;;;;;;5072601;28;20072;-86
2022/01/08 11:45:05;;;;;;;38.65;6.43;;;12.20;99.90;;;;;;5090853;28;20024;-86
2022/01/08 11:47:31;;;;;;;41.30;5.82;;;12.20;99.90;;;;;;5090533;28;20560;-85
2022/01/08 11:50:03;;;;;;;50.22;6.57;;;12.10;99.90;;;;;;5089846;28;20102;-85
2022/01/08 11:52:29;;;;;;;46.10;6.45;;;12.10;99.90;;;;;;5090569;28;20407;-85
2022/01/08 11:54:55;;;;;;;41.53;5.43;;;12.10;99.90;;;;;;5071796;28;20107;-86
2022/01/08 11:57:26;;;;;;;36.92;5.68;;;12.00;99.90;;;;;;5090455;28;20062;-85
2022/01/08 11:59:57;;;;;;;39.00;6.43;;;11.80;99.90;;;;;;5090691;28;20035;-85
2022/01/08 12:02:41;;;;;;;35.40;5.15;;;11.60;99.90;;;;;;5072370;28;20074;-86
2022/01/08 12:05:11;;;;;;;37.95;6.15;;;11.50;99.90;;;;;;5090487;28;20028;-85
2022/01/08 12:07:45;;;;;;;42.08;6.10;;;11.40;99.90;;;;;;5090494;28;20071;-86
2022/01/08 12:10:24;;;;;;;35.28;5.80;;;11.40;99.90;;;;;;5090112;28;20035;-85
2022/01/08 12:12:59;;;;;;;32.08;4.95;;;11.40;99.90;;;;;;5090438;28;20012;-85
2022/01/08 12:15:40;;;;;;;30.95;4.90;;;11.40;99.90;;;;;;5090088;28;20111;-85
2022/01/08 12:18:08;;;;;;;29.38;5.38;;;11.30;99.90;;;;;;5090502;28;20053;-85
2022/01/08 12:20:56;;;;;;;23.65;4.15;;;11.40;99.90;;;;;;5071712;28;20057;-85
2022/01/08 12:23:35;;;;;;;23.55;3.33;;;11.50;99.90;;;;;;5090182;28;20128;-86
2022/01/08 12:26:05;;;;;;;27.90;4.40;;;11.50;99.90;;;;;;5071836;28;20559;-85
2022/01/08 12:28:47;;;;;;;35.05;5.10;;;11.50;99.90;;;;;;5090109;28;20030;-86
2022/01/08 12:31:45;;;;;;;25.95;4.55;;;11.50;99.90;;;;;;5090040;28;20056;-85
2022/01/08 12:34:30;;;;;;;38.25;5.00;;;11.40;99.90;;;;;;5071632;28;20126;-85
2022/01/08 12:37:08;;;;;;;33.88;4.60;;;11.40;99.90;;;;;;5071646;28;20032;-85
2022/01/08 12:39:43;;;;;;;26.60;4.18;;;11.30;99.90;;;;;;5083568;28;20060;-85
2022/01/08 12:42:23;;;;;;;36.50;5.75;;;11.30;99.90;;;;;;5071833;28;20028;-85
2022/01/08 12:45:04;;;;;;;25.63;4.03;;;11.40;99.90;;;;;;5089947;28;20080;-86
2022/01/08 12:47:50;;;;;;;29.45;3.83;;;11.30;99.90;;;;;;5071430;28;20077;-85
2022/01/08 12:50:29;;;;;;;24.08;3.47;;;11.30;99.90;;;;;;5083632;28;20055;-86
2022/01/08 12:53:07;;;;;;;24.05;3.83;;;11.30;99.90;;;;;;5071536;28;20097;-86
2022/01/08 12:55:56;;;;;;;25.23;3.55;;;11.30;99.90;;;;;;5089645;28;20035;-86
2022/01/08 12:58:36;;;;;;;27.95;3.97;;;11.20;99.90;;;;;;5076072;28;20047;-85
2022/01/08 13:01:03;;;;;;;33.08;5.55;;;11.30;99.90;;;;;;5083901;28;20016;-86
2022/01/08 13:03:33;;;;;;;40.03;4.80;;;11.30;99.90;;;;;;5089851;28;20024;-86
2022/01/08 13:06:01;;;;;;;36.17;5.03;;;11.20;99.90;;;;;;5089709;28;20020;-87
2022/01/08 13:08:32;;;;;;;37.08;6.05;;;11.20;99.90;;;;;;5089433;28;20106;-88
2022/01/08 13:11:01;;;;;;;39.35;5.53;;;11.10;99.90;;;;;;5089885;28;20498;-90